Time;durP1;ratioP1;P1;durP2;ratioP2;P2;SDS_P1;SDS_P2;PMS_P1;PMS_P2;Temp;Humidity;BMP_temperature;BMP_pressure;BME280_temperature;BME280_humidity;BME280_pressure;Samples;Min_cycle;Max_cycle;Signal;HPM_P1;HPM_P2
2022/04/26 03:37:12;;;;;;;12.48;5.05;;;6.80;99.90;;;;;;4248124;28;20601;-84
2022/04/26 03:39:13;;;;;;;9.90;4.30;;;6.60;99.90;;;;;;4251006;28;20114;-86
2022/04/26 03:41:15;;;;;;;13.85;4.88;;;6.60;99.90;;;;;;4249049;27;20559;-85
2022/04/26 03:43:17;;;;;;;16.33;4.45;;;6.60;99.90;;;;;;4255105;27;20098;-84
2022/04/26 03:45:20;;;;;;;11.30;4.80;;;6.60;99.90;;;;;;4265103;27;20051;-84
2022/04/26 03:47:21;;;;;;;13.30;4.45;;;6.60;99.90;;;;;;4267059;27;20092;-84
2022/04/26 03:49:23;;;;;;;15.93;4.63;;;6.60;99.90;;;;;;4266147;27;20035;-83
2022/04/26 03:51:23;;;;;;;14.15;4.82;;;7.10;99.90;;;;;;4266693;27;20046;-84
2022/04/26 03:53:24;;;;;;;14.90;5.13;;;6.50;99.90;;;;;;4266665;27;20071;-85
2022/04/26 03:55:24;;;;;;;12.25;4.10;;;6.50;99.90;;;;;;4266092;27;20050;-84
2022/04/26 03:57:25;;;;;;;9.43;3.78;;;6.80;99.90;;;;;;4266560;27;20095;-84
2022/04/26 03:59:27;;;;;;;13.88;4.05;;;6.50;99.90;;;;;;4247996;28;20035;-85
2022/04/26 04:01:27;;;;;;;12.63;4.13;;;6.50;99.90;;;;;;4253572;27;20100;-84
2022/04/26 04:03:28;;;;;;;15.85;4.35;;;6.40;99.90;;;;;;4253608;27;20122;-84
2022/04/26 04:05:30;;;;;;;11.90;4.22;;;6.40;99.90;;;;;;4235796;28;20118;-83
2022/04/26 04:07:31;;;;;;;11.75;3.55;;;7.50;99.90;;;;;;4235921;28;20475;-84
2022/04/26 04:09:32;;;;;;;8.57;3.50;;;6.40;99.90;;;;;;4254422;27;20078;-84
2022/04/26 04:11:33;;;;;;;12.52;4.32;;;6.40;99.90;;;;;;4246603;27;20497;-84
2022/04/26 04:13:34;;;;;;;15.70;3.45;;;6.40;99.90;;;;;;4255910;27;20039;-84
2022/04/26 04:15:37;;;;;;;7.47;3.53;;;6.40;99.90;;;;;;4255869;27;20047;-84
2022/04/26 04:17:38;;;;;;;11.02;3.75;;;6.40;99.90;;;;;;4255396;27;20051;-84
2022/04/26 04:19:38;;;;;;;8.55;3.47;;;6.40;99.90;;;;;;4255437;27;20043;-84
2022/04/26 04:21:39;;;;;;;13.27;3.85;;;7.20;99.90;;;;;;4256518;27;20047;-84
2022/04/26 04:23:40;;;;;;;11.35;3.67;;;6.80;99.90;;;;;;4256671;27;20377;-83
2022/04/26 04:25:41;;;;;;;16.58;4.15;;;6.40;99.90;;;;;;4265727;27;20039;-83
2022/04/26 04:27:42;;;;;;;15.10;3.78;;;6.50;99.90;;;;;;4273689;27;20041;-84
2022/04/26 04:29:44;;;;;;;8.18;3.17;;;7.40;99.90;;;;;;4273888;27;20039;-84
2022/04/26 04:31:45;;;;;;;15.75;3.63;;;6.40;99.90;;;;;;4275433;27;20500;-84
2022/04/26 04:33:47;;;;;;;12.57;3.78;;;6.40;99.90;;;;;;4268397;27;20070;-84
2022/04/26 04:35:49;;;;;;;10.43;3.33;;;6.40;99.90;;;;;;4276731;27;20161;-84
2022/04/26 04:37:50;;;;;;;18.25;4.97;;;6.40;99.90;;;;;;4269317;27;20039;-84
2022/04/26 04:39:51;;;;;;;17.15;4.40;;;6.40;99.90;;;;;;4269560;27;20118;-84
2022/04/26 04:41:53;;;;;;;14.75;3.97;;;7.30;99.90;;;;;;4269367;27;20053;-84
2022/04/26 04:43:55;;;;;;;14.90;3.60;;;6.40;99.90;;;;;;4269762;27;20054;-84
2022/04/26 04:45:56;;;;;;;15.10;4.20;;;7.20;99.90;;;;;;4263390;27;20122;-83
2022/04/26 04:47:56;;;;;;;14.00;4.57;;;6.50;99.90;;;;;;4249979;27;20047;-85
2022/04/26 04:49:57;;;;;;;10.95;3.50;;;6.50;99.90;;;;;;4250101;27;20035;-84
2022/04/26 04:51:58;;;;;;;13.25;4.43;;;6.50;99.90;;;;;;4232056;28;20075;-84
2022/04/26 04:53:58;;;;;;;21.00;4.63;;;6.50;99.90;;;;;;4249996;27;20058;-84
2022/04/26 04:55:59;;;;;;;13.63;3.58;;;6.50;99.90;;;;;;4255043;27;20061;-84
2022/04/26 04:58:00;;;;;;;8.98;3.55;;;6.50;99.90;;;;;;4267068;27;20114;-84
2022/04/26 05:00:02;;;;;;;12.70;3.63;;;6.60;99.90;;;;;;4266574;27;20035;-84
2022/04/26 05:02:03;;;;;;;8.15;3.30;;;6.60;99.90;;;;;;4268036;27;20042;-84
2022/04/26 05:04:03;;;;;;;10.55;4.55;;;6.60;99.90;;;;;;4249567;27;20069;-84
2022/04/26 05:06:05;;;;;;;13.25;3.28;;;6.60;99.90;;;;;;4268101;27;20074;-84
2022/04/26 05:08:09;;;;;;;7.15;3.30;;;6.60;99.90;;;;;;4266664;27;20050;-84
2022/04/26 05:10:10;;;;;;;6.13;2.72;;;6.60;99.90;;;;;;4267491;27;20410;-84
2022/04/26 05:12:11;;;;;;;11.65;3.33;;;6.70;99.90;;;;;;4244391;27;20077;-84
2022/04/26 05:14:11;;;;;;;7.20;3.58;;;6.70;99.90;;;;;;4250415;27;20039;-84
2022/04/26 05:16:12;;;;;;;9.18;3.50;;;6.70;99.90;;;;;;4249936;27;20047;-84
2022/04/26 05:18:13;;;;;;;8.18;3.58;;;6.70;99.90;;;;;;4252179;27;20098;-84
2022/04/26 05:20:14;;;;;;;16.92;3.65;;;6.70;99.90;;;;;;4233785;28;20083;-84
2022/04/26 05:22:14;;;;;;;9.02;3.30;;;6.80;99.90;;;;;;4250183;27;20039;-84
2022/04/26 05:26:35;;;;;;;8.00;3.20;;;7.70;99.90;;;;;;4250280;27;20051;-84
2022/04/26 05:28:36;;;;;;;9.73;3.83;;;6.90;99.90;;;;;;4250435;27;20439;-84
2022/04/26 05:30:37;;;;;;;6.88;3.35;;;6.90;99.90;;;;;;4266722;27;20038;-83
2022/04/26 05:32:38;;;;;;;7.93;3.60;;;7.00;99.90;;;;;;4248562;27;20103;-84
2022/04/26 05:34:38;;;;;;;8.13;3.97;;;7.00;99.90;;;;;;4267831;27;20084;-84
2022/04/26 05:36:40;;;;;;;8.02;3.80;;;7.10;99.90;;;;;;4267542;27;20482;-84
2022/04/26 05:38:41;;;;;;;10.23;4.30;;;7.20;99.90;;;;;;4267027;27;20049;-84
2022/04/26 05:40:43;;;;;;;7.28;3.75;;;;;;;;;;4266834;27;20402;-84
2022/04/26 05:42:44;;;;;;;9.70;4.07;;;;;;;;;;4247550;27;20086;-84
2022/04/26 05:44:45;;;;;;;9.13;4.63;;;;;;;;;;4266622;27;20126;-84
2022/04/26 05:46:46;;;;;;;15.43;4.90;;;;;;;;;;4267134;27;20043;-84
2022/04/26 05:48:47;;;;;;;12.60;4.55;;;;;;;;;;4232028;28;20415;-84
2022/04/26 05:50:49;;;;;;;9.27;4.57;;;;;;;;;;4268053;27;20387;-85
2022/04/26 05:52:53;;;;;;;9.25;4.18;;;;;;;;;;4248903;27;20573;-84
2022/04/26 05:54:56;;;;;;;15.23;4.28;;;;;;;;;;4267659;27;20050;-85
2022/04/26 05:56:58;;;;;;;22.33;5.82;;;;;;;;;;4247616;27;20130;-85
2022/04/26 05:58:59;;;;;;;11.50;4.03;;;;;;;;;;4267056;27;20478;-84
2022/04/26 06:01:00;;;;;;;7.50;3.55;;;;;;;;;;4266159;27;20081;-84
2022/04/26 06:03:01;;;;;;;7.25;4.15;;;;;;;;;;4266544;27;20038;-84
2022/04/26 06:05:03;;;;;;;9.80;3.70;;;;;;;;;;4266435;27;20043;-84
2022/04/26 06:07:04;;;;;;;10.95;2.80;;;;;;;;;;4266648;27;20494;-85
2022/04/26 06:09:06;;;;;;;8.88;2.95;;;7.20;99.90;;;;;;4266683;27;20047;-85
2022/04/26 06:11:07;;;;;;;13.48;3.28;;;8.30;99.90;;;;;;4266278;27;20097;-85
2022/04/26 06:13:08;;;;;;;10.15;3.17;;;9.70;99.90;;;;;;4266743;27;20034;-85
2022/04/26 06:15:10;;;;;;;15.25;3.00;;;8.30;99.90;;;;;;4266488;27;20490;-84
2022/04/26 06:17:10;;;;;;;9.25;2.97;;;8.10;99.90;;;;;;4266165;27;20050;-85
2022/04/26 06:19:11;;;;;;;13.20;2.83;;;8.90;99.90;;;;;;4266193;27;20081;-85
2022/04/26 06:21:12;;;;;;;14.98;3.45;;;9.40;99.90;;;;;;4248473;27;20115;-85
2022/04/26 06:23:12;;;;;;;9.27;2.65;;;8.40;99.90;;;;;;4266268;27;20043;-84
2022/04/26 06:25:13;;;;;;;7.13;2.30;;;8.40;99.90;;;;;;4265995;27;20046;-84
2022/04/26 06:27:14;;;;;;;9.48;2.40;;;8.40;99.90;;;;;;4242571;28;20054;-85
2022/04/26 06:29:15;;;;;;;9.88;2.95;;;8.50;99.90;;;;;;4236342;28;20042;-85
2022/04/26 06:31:16;;;;;;;13.57;2.55;;;8.60;99.90;;;;;;4251142;27;20498;-86
2022/04/26 06:33:17;;;;;;;8.45;2.25;;;9.20;99.90;;;;;;4249324;27;20405;-85
2022/04/26 06:35:18;;;;;;;7.25;2.20;;;9.20;99.90;;;;;;4257905;27;20042;-84
2022/04/26 06:37:19;;;;;;;6.22;2.55;;;8.60;99.90;;;;;;4263255;27;20423;-84
2022/04/26 06:39:21;;;;;;;17.75;3.58;;;9.20;99.90;;;;;;4251608;27;20467;-84
2022/04/26 06:41:21;;;;;;;7.40;2.97;;;9.20;99.90;;;;;;4257657;27;20045;-85
2022/04/26 06:43:23;;;;;;;11.50;3.28;;;9.00;99.90;;;;;;4264899;27;20492;-85
2022/04/26 06:45:24;;;;;;;5.53;1.90;;;9.10;99.90;;;;;;4236736;28;20047;-85
2022/04/26 06:47:25;;;;;;;9.30;2.25;;;9.20;99.90;;;;;;4257886;27;20039;-86
2022/04/26 06:49:26;;;;;;;9.95;2.53;;;9.40;99.90;;;;;;4263770;27;20431;-86
2022/04/26 06:51:30;;;;;;;8.45;2.75;;;9.20;99.90;;;;;;4261676;27;20078;-85
2022/04/26 06:53:31;;;;;;;7.47;2.50;;;9.20;99.90;;;;;;4237287;28;20036;-86
2022/04/26 06:55:32;;;;;;;9.80;2.15;;;9.30;99.90;;;;;;4239640;28;20131;-85
2022/04/26 06:57:36;;;;;;;10.18;2.85;;;9.30;99.90;;;;;;4264116;27;20046;-85
2022/04/26 06:59:39;;;;;;;10.32;2.17;;;10.10;99.90;;;;;;4236424;28;20101;-87
2022/04/26 07:01:40;;;;;;;8.20;2.58;;;9.30;99.90;;;;;;4252901;27;20483;-87
2022/04/26 07:03:41;;;;;;;8.18;3.00;;;10.00;99.90;;;;;;4252090;27;20043;-87
2022/04/26 07:05:41;;;;;;;8.45;2.40;;;9.40;99.90;;;;;;4257853;27;20085;-87
2022/04/26 07:07:42;;;;;;;7.38;2.85;;;9.50;99.90;;;;;;4255760;27;20042;-86
2022/04/26 07:09:43;;;;;;;10.38;2.20;;;9.60;99.90;;;;;;4222174;28;20564;-87
2022/04/26 07:11:45;;;;;;;11.50;3.17;;;9.70;99.90;;;;;;4254178;27;20039;-87
2022/04/26 07:13:48;;;;;;;9.65;2.17;;;9.80;99.90;;;;;;4256383;27;20090;-86
2022/04/26 07:15:48;;;;;;;9.35;2.40;;;9.80;99.90;;;;;;4253788;27;20107;-87
2022/04/26 07:17:49;;;;;;;11.82;2.42;;;10.60;99.90;;;;;;4259888;27;20051;-86
2022/04/26 07:19:50;;;;;;;10.90;2.20;;;10.50;99.90;;;;;;4256628;27;20043;-86
2022/04/26 07:21:51;;;;;;;6.57;2.25;;;10.30;99.90;;;;;;4255563;27;20121;-87
2022/04/26 07:23:51;;;;;;;24.23;2.63;;;10.40;99.90;;;;;;4254191;27;20047;-86
2022/04/26 07:25:52;;;;;;;8.45;2.50;;;10.60;99.90;;;;;;4254184;27;20074;-86
2022/04/26 07:27:53;;;;;;;9.52;2.63;;;10.70;99.90;;;;;;4254968;27;20051;-86
2022/04/26 07:29:54;;;;;;;8.18;2.60;;;11.60;99.90;;;;;;4256191;27;20499;-86
2022/04/26 07:31:55;;;;;;;3.80;2.05;;;10.90;99.90;;;;;;4255330;27;20035;-87
2022/04/26 07:36:15;;;;;;;4.93;2.33;;;11.10;99.90;;;;;;4244074;27;20076;-87
2022/04/26 07:38:16;;;;;;;8.88;3.00;;;11.20;99.90;;;;;;4266378;27;20034;-88
2022/04/26 07:40:17;;;;;;;7.53;2.67;;;11.30;99.90;;;;;;4254294;27;20043;-87
2022/04/26 07:42:18;;;;;;;6.68;2.08;;;11.60;99.90;;;;;;4254003;27;20479;-87
2022/04/26 07:44:19;;;;;;;9.18;2.40;;;;;;;;;;4261231;27;20049;-87
2022/04/26 07:46:20;;;;;;;5.78;2.20;;;11.50;99.90;;;;;;4244432;27;20491;-86
2022/04/26 07:48:22;;;;;;;4.88;1.98;;;;;;;;;;4262837;27;20118;-87
2022/04/26 07:50:22;;;;;;;6.40;2.08;;;12.00;99.90;;;;;;4251850;27;20051;-86
2022/04/26 07:52:24;;;;;;;7.10;2.75;;;;;;;;;;4243947;27;20061;-86
2022/04/26 07:54:26;;;;;;;8.77;1.88;;;;;;;;;;4235659;27;20055;-87
2022/04/26 07:56:27;;;;;;;10.65;2.78;;;;;;;;;;4262205;27;20429;-87
2022/04/26 07:58:29;;;;;;;4.72;1.58;;;;;;;;;;4262046;27;20050;-86
2022/04/26 08:00:33;;;;;;;2.85;1.63;;;;;;;;;;4262336;27;20043;-86
2022/04/26 08:02:35;;;;;;;7.97;2.03;;;;;;;;;;4253622;27;20173;-86
2022/04/26 08:04:36;;;;;;;4.90;1.73;;;;;;;;;;4254847;27;20406;-85
2022/04/26 08:06:37;;;;;;;5.53;1.98;;;;;;;;;;4253083;27;20086;-85
2022/04/26 08:08:39;;;;;;;5.15;1.95;;;;;;;;;;4253111;27;20039;-86
2022/04/26 08:10:40;;;;;;;3.25;1.70;;;;;;;;;;4251816;27;20051;-85
2022/04/26 08:12:43;;;;;;;5.90;1.77;;;;;;;;;;4253679;27;20121;-85
2022/04/26 08:14:44;;;;;;;6.05;1.67;;;;;;;;;;4262298;27;20082;-87
2022/04/26 08:16:45;;;;;;;7.30;1.73;;;;;;;;;;4252427;27;20134;-85
2022/04/26 08:18:46;;;;;;;6.85;1.63;;;;;;;;;;4265027;27;20043;-85
2022/04/26 08:20:48;;;;;;;5.88;1.58;;;;;;;;;;4253274;27;20086;-85
2022/04/26 08:22:49;;;;;;;5.85;2.03;;;;;;;;;;4253435;27;20047;-85
2022/04/26 08:27:22;;;;;;;5.25;1.98;;;;;;;;;;4261638;27;20039;-86
2022/04/26 08:29:23;;;;;;;5.75;2.33;;;;;;;;;;4234574;27;20035;-86
2022/04/26 08:31:24;;;;;;;5.63;1.80;;;;;;;;;;4231520;27;20498;-85
2022/04/26 08:33:34;;;;;;;8.48;1.40;;;;;;;;;;4264156;27;20046;-86
2022/04/26 08:35:36;;;;;;;7.32;2.28;;;;;;;;;;4250525;27;20078;-86
2022/04/26 08:37:37;;;;;;;5.05;1.70;;;;;;;;;;4243036;27;20040;-86
2022/04/26 08:39:38;;;;;;;6.38;1.63;;;;;;;;;;4251080;27;20071;-86
2022/04/26 08:41:39;;;;;;;5.40;1.50;;;;;;;;;;4261374;27;20071;-86
2022/04/26 08:43:41;;;;;;;5.90;1.60;;;;;;;;;;4261732;27;20035;-85
2022/04/26 08:45:44;;;;;;;4.30;1.42;;;;;;;;;;4264043;27;20079;-85
2022/04/26 08:52:25;;;;;;;7.03;1.77;;;;;;;;;;4241150;27;20142;-86
2022/04/26 08:54:26;;;;;;;3.80;1.50;;;;;;;;;;4238658;27;20131;-86
2022/04/26 08:56:27;;;;;;;8.20;2.28;;;;;;;;;;4261358;27;20041;-86
2022/04/26 08:58:31;;;;;;;4.10;1.70;;;;;;;;;;4258054;27;20035;-86
2022/04/26 09:00:32;;;;;;;5.70;1.60;;;;;;;;;;4252989;27;20047;-86
2022/04/26 09:02:33;;;;;;;4.07;1.83;;;;;;;;;;4235256;27;20415;-86
2022/04/26 09:04:34;;;;;;;6.47;1.48;;;;;;;;;;4257351;27;20091;-86
2022/04/26 09:06:45;;;;;;;5.07;1.75;;;;;;;;;;4244476;27;20039;-85
2022/04/26 09:08:48;;;;;;;4.97;1.52;;;;;;;;;;4267181;27;20110;-87
2022/04/26 09:10:50;;;;;;;9.75;2.15;;;;;;;;;;4264180;27;20047;-87
2022/04/26 09:12:57;;;;;;;9.50;1.77;;;;;;;;;;4267229;27;20474;-86
2022/04/26 09:15:13;;;;;;;5.97;2.35;;;;;;;;;;4255753;27;20043;-86
2022/04/26 09:17:17;;;;;;;5.95;1.80;;;;;;;;;;4276361;27;20066;-86
2022/04/26 09:19:19;;;;;;;4.38;2.13;;;;;;;;;;4278548;27;20078;-87
2022/04/26 09:21:21;;;;;;;8.45;1.40;;;;;;;;;;4250582;27;20103;-88
2022/04/26 09:23:26;;;;;;;2.40;1.20;;;;;;;;;;4265755;27;20111;-85
2022/04/26 09:25:27;;;;;;;3.58;1.30;;;;;;;;;;4256738;27;20538;-85
2022/04/26 09:27:29;;;;;;;4.55;1.17;;;;;;;;;;4261026;27;20471;-86
2022/04/26 09:29:30;;;;;;;6.07;1.60;;;;;;;;;;4234795;27;20092;-88
2022/04/26 09:31:32;;;;;;;7.03;1.77;;;;;;;;;;4262281;27;20035;-87
2022/04/26 09:33:40;;;;;;;3.90;2.00;;;;;;;;;;4253025;27;20120;-87
2022/04/26 09:35:41;;;;;;;3.55;1.35;;;;;;;;;;4260704;27;20447;-87
2022/04/26 09:37:43;;;;;;;3.88;1.50;;;;;;;;;;4254333;27;20039;-87
2022/04/26 09:40:05;;;;;;;1.85;1.33;;;;;;;;;;4254980;27;20515;-87
2022/04/26 09:42:07;;;;;;;5.82;1.67;;;;;;;;;;4263479;27;20043;-86
2022/04/26 09:44:09;;;;;;;3.20;1.45;;;;;;;;;;4263026;27;20483;-87
2022/04/26 09:46:11;;;;;;;3.03;1.02;;;;;;;;;;4255526;27;20039;-87
2022/04/26 09:48:24;;;;;;;5.07;1.52;;;;;;;;;;4262289;27;20039;-87
2022/04/26 09:50:27;;;;;;;6.07;1.55;;;;;;;;;;4251412;27;20046;-87
2022/04/26 09:52:28;;;;;;;3.63;1.27;;;;;;;;;;4241556;27;20418;-88
2022/04/26 09:54:31;;;;;;;3.42;1.67;;;;;;;;;;4260166;27;20447;-87
2022/04/26 09:56:32;;;;;;;5.38;1.48;;;;;;;;;;4264438;27;20070;-87
2022/04/26 09:58:37;;;;;;;2.60;1.42;;;;;;;;;;4233883;27;20402;-87
2022/04/26 10:00:42;;;;;;;5.53;1.80;;;;;;;;;;4262430;27;20050;-87
2022/04/26 10:02:47;;;;;;;4.22;1.75;;;;;;;;;;4252768;27;20456;-87
2022/04/26 10:04:52;;;;;;;3.22;1.40;;;;;;;;;;4260533;27;20047;-87
2022/04/26 10:06:57;;;;;;;4.07;1.30;;;;;;;;;;4262717;27;20046;-88
2022/04/26 10:08:58;;;;;;;2.25;1.30;;;;;;;;;;4261568;27;20035;-87
2022/04/26 10:11:00;;;;;;;4.35;1.50;;;;;;;;;;4259771;27;20040;-87
2022/04/26 10:15:21;;;;;;;7.03;1.30;;;;;;;;;;4255888;27;20042;-86
2022/04/26 10:17:22;;;;;;;2.88;1.67;;;;;;;;;;4263258;27;20134;-88
2022/04/26 10:19:40;;;;;;;3.90;1.38;;;12.50;99.10;;;;;;4240496;27;20046;-88
2022/04/26 10:21:46;;;;;;;6.03;1.98;;;18.10;59.20;;;;;;4250426;27;20035;-88
2022/04/26 10:23:56;;;;;;;4.28;1.40;;;17.60;60.60;;;;;;4251857;27;20039;-90
2022/04/26 10:28:23;;;;;;;2.08;1.40;;;17.30;60.20;;;;;;4233019;28;20089;-89
2022/04/26 10:30:55;;;;;;;4.82;1.35;;;17.50;61.80;;;;;;4261432;27;20482;-89
2022/04/26 10:32:56;;;;;;;3.03;1.35;;;;;;;;;;4232875;28;20131;-88
2022/04/26 10:35:17;;;;;;;6.00;1.48;;;;;;;;;;4227592;28;20525;-89
2022/04/26 10:37:18;;;;;;;3.03;1.30;;;;;;;;;;4219429;28;20044;-90
2022/04/26 10:39:22;;;;;;;6.20;1.50;;;;;;;;;;4242857;28;20039;-88
2022/04/26 10:41:34;;;;;;;2.95;1.58;;;;;;;;;;4236280;28;20121;-89
2022/04/26 10:43:35;;;;;;;3.38;1.27;;;;;;;;;;4241616;28;20050;-91
2022/04/26 10:45:56;;;;;;;5.93;1.50;;;;;;;;;;4228672;28;20089;-92
2022/04/26 10:48:15;;;;;;;3.47;1.33;;;;;;;;;;4242806;28;20071;-92
2022/04/26 10:50:16;;;;;;;;;;;;;;;;;;4238746;28;20103;-92
2022/04/26 10:52:24;;;;;;;3.65;1.38;;;;;;;;;;4245347;27;19926;-91
2022/04/26 10:56:53;;;;;;;4.22;1.90;;;;;;;;;;4253338;27;20051;-92
2022/04/26 10:58:55;;;;;;;5.30;1.20;;;;;;;;;;4235151;28;20461;-92
2022/04/26 11:00:56;;;;;;;8.07;2.10;;;;;;;;;;4237909;27;20511;-91
2022/04/26 11:03:02;;;;;;;3.80;1.50;;;;;;;;;;4250666;27;20396;-92
2022/04/26 11:05:08;;;;;;;4.53;1.15;;;;;;;;;;4236971;27;20461;-92
2022/04/26 11:07:16;;;;;;;4.13;1.30;;;;;;;;;;4237522;27;20435;-92
2022/04/26 11:09:17;;;;;;;2.67;1.30;;;;;;;;;;4224542;28;20090;-92
2022/04/26 11:11:18;;;;;;;4.50;1.50;;;;;;;;;;4222601;28;20047;-92
2022/04/26 11:13:22;;;;;;;2.15;1.30;;;;;;;;;;4236579;27;20135;-92
2022/04/26 11:15:25;;;;;;;5.18;1.50;;;;;;;;;;4251005;27;20126;-92
2022/04/26 11:17:27;;;;;;;7.30;1.30;;;;;;;;;;4248383;27;20116;-91
2022/04/26 11:19:29;;;;;;;4.47;2.25;;;;;;;;;;4219576;28;20047;-92
2022/04/26 11:21:33;;;;;;;7.10;1.50;;;;;;;;;;4250015;27;20050;-92
2022/04/26 11:28:27;;;;;;;3.03;1.27;;;;;;;;;;4249599;27;20047;-92
2022/04/26 11:30:35;;;;;;;2.63;1.25;;;;;;;;;;4244563;27;20050;-93
2022/04/26 11:32:44;;;;;;;4.18;1.27;;;;;;;;;;4238921;27;20372;-92
2022/04/26 11:34:49;;;;;;;2.22;1.20;;;;;;;;;;4221323;28;20047;-92
2022/04/26 11:36:53;;;;;;;3.80;1.40;;;;;;;;;;4235080;27;20590;-92
2022/04/26 11:38:57;;;;;;;2.97;1.10;;;;;;;;;;4219273;28;20113;-92
2022/04/26 11:41:00;;;;;;;3.95;1.80;;;;;;;;;;4220855;28;20071;-93
2022/04/26 11:43:27;;;;;;;2.40;1.15;;;;;;;;;;4238225;27;20209;-92
2022/04/26 11:45:33;;;;;;;4.03;1.48;;;;;;;;;;4231635;27;20114;-92
2022/04/26 11:47:43;;;;;;;3.33;1.45;;;;;;;;;;4248842;27;20039;-93
2022/04/26 11:49:46;;;;;;;5.15;1.38;;;;;;;;;;4224351;28;20040;-92
2022/04/26 11:52:03;;;;;;;5.70;1.17;;;;;;;;;;4252322;27;20039;-93
2022/04/26 11:54:04;;;;;;;4.47;1.08;;;;;;;;;;4234016;28;20048;-93
2022/04/26 11:56:06;;;;;;;5.38;1.60;;;;;;;;;;4244789;27;20043;-93
2022/04/26 11:58:10;;;;;;;3.75;1.33;;;;;;;;;;4253350;27;20042;-90
2022/04/26 12:00:11;;;;;;;2.78;1.10;;;;;;;;;;4251375;27;20042;-93
2022/04/26 12:02:13;;;;;;;5.57;1.50;;;;;;;;;;4247895;27;20075;-92
2022/04/26 12:04:14;;;;;;;3.47;1.13;;;;;;;;;;4245584;27;20436;-92
2022/04/26 12:06:17;;;;;;;3.10;1.50;;;;;;;;;;4227140;28;20396;-92
2022/04/26 12:08:18;;;;;;;3.33;1.75;;;;;;;;;;4237474;27;20078;-92
2022/04/26 12:10:30;;;;;;;4.60;1.13;;;;;;;;;;4248818;27;20038;-92
2022/04/26 12:12:54;;;;;;;2.28;1.17;;;;;;;;;;4242489;27;20054;-92
2022/04/26 12:14:55;;;;;;;5.28;1.23;;;;;;;;;;4236290;27;20118;-90
2022/04/26 12:16:56;;;;;;;2.58;1.05;;;;;;;;;;4225905;28;20134;-91
2022/04/26 12:19:05;;;;;;;2.80;0.85;;;;;;;;;;4240168;27;20044;-90
2022/04/26 12:21:06;;;;;;;3.22;1.02;;;;;;;;;;4227747;28;20047;-90
2022/04/26 12:23:20;;;;;;;7.70;1.83;;;;;;;;;;4245619;27;20506;-91
2022/04/26 12:25:22;;;;;;;4.22;1.42;;;;;;;;;;4248825;27;20059;-90
2022/04/26 12:27:25;;;;;;;2.15;1.10;;;;;;;;;;4220753;28;20048;-94
2022/04/26 12:29:27;;;;;;;5.45;2.08;;;;;;;;;;4244617;27;20116;-88
2022/04/26 12:31:31;;;;;;;4.85;1.77;;;;;;;;;;4247368;27;20049;-88
2022/04/26 12:33:34;;;;;;;4.20;1.40;;;;;;;;;;4237304;27;20042;-89
2022/04/26 12:35:35;;;;;;;4.35;1.30;;;;;;;;;;4236905;27;20119;-88
2022/04/26 12:37:36;;;;;;;4.20;1.42;;;;;;;;;;4245574;27;20466;-89
2022/04/26 12:39:37;;;;;;;5.35;1.38;;;;;;;;;;4245093;27;20054;-89
2022/04/26 12:41:48;;;;;;;4.72;1.25;;;;;;;;;;4252305;27;20054;-89
2022/04/26 12:44:01;;;;;;;2.53;1.15;;;;;;;;;;4244678;27;20047;-88
2022/04/26 12:46:03;;;;;;;2.45;1.00;;;;;;;;;;4229629;28;20066;-89
2022/04/26 12:50:32;;;;;;;6.72;1.65;;;;;;;;;;4245259;28;20043;-88
2022/04/26 12:52:33;;;;;;;6.57;2.25;;;;;;;;;;4253648;27;20042;-89
2022/04/26 12:54:36;;;;;;;2.92;1.27;;;;;;;;;;4256399;27;20024;-89
2022/04/26 12:56:37;;;;;;;2.35;1.40;;;;;;;;;;4237176;28;20040;-89
2022/04/26 12:58:39;;;;;;;1.90;1.20;;;;;;;;;;4249060;28;20040;-89
2022/04/26 13:00:41;;;;;;;2.95;1.13;;;;;;;;;;4260034;27;20031;-89
2022/04/26 13:02:42;;;;;;;2.67;1.38;;;;;;;;;;4262068;27;20253;-88
2022/04/26 13:05:03;;;;;;;8.13;1.83;;;;;;;;;;4238018;28;20115;-88
2022/04/26 13:07:04;;;;;;;4.93;1.65;;;;;;;;;;4259901;27;20027;-92
2022/04/26 13:09:05;;;;;;;5.50;1.42;;;;;;;;;;4254446;27;20388;-92
2022/04/26 13:11:08;;;;;;;4.70;1.40;;;;;;;;;;4248749;27;20094;-91
2022/04/26 13:13:10;;;;;;;4.13;1.45;;;;;;;;;;4242636;27;20396;-91
2022/04/26 13:15:11;;;;;;;2.50;1.60;;;;;;;;;;4242168;27;20050;-89
2022/04/26 13:17:12;;;;;;;5.47;1.58;;;;;;;;;;4255227;27;20047;-90
2022/04/26 13:19:13;;;;;;;2.85;1.30;;;;;;;;;;4243449;27;20046;-90
2022/04/26 13:21:14;;;;;;;3.53;1.30;;;;;;;;;;4243161;27;20040;-91
2022/04/26 13:23:16;;;;;;;5.13;1.30;;;;;;;;;;4236740;27;20047;-90
2022/04/26 13:25:17;;;;;;;4.47;1.58;;;;;;;;;;4261203;27;20043;-91
2022/04/26 13:27:19;;;;;;;2.55;1.30;;;;;;;;;;4218304;28;20466;-88
2022/04/26 13:29:21;;;;;;;3.60;1.38;;;;;;;;;;4235242;27;20040;-92
2022/04/26 13:31:22;;;;;;;2.83;1.15;;;;;;;;;;4237863;27;20103;-91
2022/04/26 13:33:25;;;;;;;4.40;2.45;;;;;;;;;;4246352;27;20046;-90
2022/04/26 13:35:26;;;;;;;4.18;1.38;;;;;;;;;;4243467;27;20035;-93
2022/04/26 13:37:28;;;;;;;7.43;1.90;;;;;;;;;;4240315;27;20106;-91
2022/04/26 13:39:29;;;;;;;3.88;1.80;;;;;;;;;;4238314;27;20046;-92
2022/04/26 13:41:31;;;;;;;4.00;1.42;;;;;;;;;;4242970;27;20043;-89
2022/04/26 13:43:32;;;;;;;4.15;1.33;;;;;;;;;;4225598;28;20501;-89
2022/04/26 13:45:35;;;;;;;6.68;2.00;;;;;;;;;;4240614;27;20100;-91
2022/04/26 13:47:38;;;;;;;3.28;1.40;;;;;;;;;;4235105;27;20086;-93
2022/04/26 13:49:42;;;;;;;2.92;1.33;;;;;;;;;;4253470;27;20047;-90
2022/04/26 13:51:45;;;;;;;2.75;1.35;;;;;;;;;;4242259;27;20125;-90
2022/04/26 13:53:47;;;;;;;3.80;1.30;;;;;;;;;;4230673;28;20103;-91
2022/04/26 13:55:49;;;;;;;3.70;1.33;;;;;;;;;;4250725;27;20079;-90
2022/04/26 13:57:52;;;;;;;7.55;2.53;;;;;;;;;;4255837;27;20503;-90
2022/04/26 13:59:53;;;;;;;4.47;1.40;;;;;;;;;;4245889;27;20047;-90
2022/04/26 14:01:56;;;;;;;5.10;1.55;;;;;;;;;;4237142;27;20547;-91
2022/04/26 14:03:58;;;;;;;4.40;1.40;;;;;;;;;;4241045;27;20039;-90
2022/04/26 14:05:59;;;;;;;6.10;1.92;;;;;;;;;;4242373;27;20058;-91
2022/04/26 14:08:02;;;;;;;3.25;1.17;;;;;;;;;;4239223;27;20050;-90
2022/04/26 14:10:04;;;;;;;4.40;1.85;;;;;;;;;;4236384;27;20418;-89
2022/04/26 14:12:07;;;;;;;4.93;1.52;;;;;;;;;;4239940;27;20044;-90
2022/04/26 14:23:26;;;;;;;;;;;19.50;45.90;;;;;;4245439;27;20043;-86
2022/04/26 14:25:27;;;;;;;3.60;1.20;;;;;;;;;;4231664;28;19927;-90
2022/04/26 14:27:29;;;;;;;4.55;1.40;;;;;;;;;;4262564;27;20045;-90
2022/04/26 14:29:30;;;;;;;3.20;1.33;;;;;;;;;;4246423;27;20126;-91
2022/04/26 14:31:31;;;;;;;3.22;1.73;;;;;;;;;;4251743;27;20471;-91
2022/04/26 14:33:33;;;;;;;7.18;1.77;;;;;;;;;;4243080;28;20496;-93
2022/04/26 14:35:34;;;;;;;3.63;1.58;;;;;;;;;;4243213;28;20046;-91
2022/04/26 14:37:35;;;;;;;1.83;1.10;;;;;;;;;;4215626;28;20046;-90
2022/04/26 14:39:36;;;;;;;3.50;1.30;;;;;;;;;;4262038;27;20107;-91
2022/04/26 14:41:40;;;;;;;2.10;1.20;;;;;;;;;;4262062;27;20391;-93
2022/04/26 14:43:41;;;;;;;2.90;1.30;;;;;;;;;;4246812;28;20094;-93
2022/04/26 14:45:45;;;;;;;2.35;1.15;;;;;;;;;;4245332;28;20471;-90
2022/04/26 14:47:46;;;;;;;3.42;1.20;;;;;;;;;;4242743;28;20059;-91
2022/04/26 14:49:49;;;;;;;3.05;1.40;;;;;;;;;;4246945;28;20481;-92
2022/04/26 14:51:50;;;;;;;4.88;1.33;;;;;;;;;;4265535;27;20043;-90
2022/04/26 14:53:51;;;;;;;1.92;1.05;;;;;;;;;;4252329;27;20459;-91
2022/04/26 14:55:52;;;;;;;4.93;1.80;;;;;;;;;;4265867;27;20051;-90
2022/04/26 14:57:54;;;;;;;2.83;1.20;;;;;;;;;;4250849;27;20051;-92
2022/04/26 14:59:55;;;;;;;2.97;1.10;;;;;;;;;;4248303;28;20047;-91
2022/04/26 15:01:56;;;;;;;3.20;1.33;;;;;;;;;;4243422;28;20042;-90
2022/04/26 15:03:58;;;;;;;4.72;1.13;;;;;;;;;;4263771;27;20158;-90
2022/04/26 15:06:00;;;;;;;3.80;1.27;;;;;;;;;;4219905;28;20044;-91
2022/04/26 15:10:21;;;;;;;2.90;1.27;;;;;;;;;;4257131;27;20403;-92
2022/04/26 15:17:09;;;;;;;3.05;1.08;;;;;;;;;;4207664;28;20134;-91
2022/04/26 15:19:11;;;;;;;3.95;1.58;;;;;;;;;;4229169;28;20051;-91
2022/04/26 15:21:12;;;;;;;2.75;1.33;;;;;;;;;;4253017;28;20515;-92
2022/04/26 15:23:15;;;;;;;7.63;1.50;;;;;;;;;;4250341;28;20043;-94
2022/04/26 15:25:16;;;;;;;5.85;1.30;;;;;;;;;;4233419;28;20039;-91
2022/04/26 15:27:18;;;;;;;4.63;1.75;;;;;;;;;;4256243;27;20043;-91
2022/04/26 15:29:19;;;;;;;3.25;1.40;;;;;;;;;;4252121;28;20039;-91
2022/04/26 15:31:22;;;;;;;4.70;1.38;;;;;;;;;;4264586;27;20046;-88
2022/04/26 15:33:24;;;;;;;5.43;1.10;;;;;;;;;;4262077;27;20039;-84
2022/04/26 15:35:25;;;;;;;1.88;1.10;;;;;;;;;;4254214;27;20096;-85
2022/04/26 15:37:27;;;;;;;6.50;1.65;;;;;;;;;;4255359;27;20104;-85
2022/04/26 15:39:29;;;;;;;2.88;1.20;;;;;;;;;;4255828;27;20051;-85
2022/04/26 15:41:32;;;;;;;2.85;1.50;;;19.70;44.60;;;;;;4264432;27;20062;-85
2022/04/26 15:43:34;;;;;;;3.92;1.38;;;20.30;43.40;;;;;;4258682;27;20205;-85
2022/04/26 15:45:36;;;;;;;1.83;1.10;;;20.00;43.50;;;;;;4262765;27;20145;-84
2022/04/26 15:47:37;;;;;;;4.18;1.55;;;19.70;43.90;;;;;;4264557;27;20070;-85
2022/04/26 15:49:38;;;;;;;4.25;1.77;;;19.40;44.10;;;;;;4262311;27;20050;-86
2022/04/26 15:51:42;;;;;;;4.70;1.60;;;19.20;44.10;;;;;;4264619;27;20035;-86
2022/04/26 15:53:46;;;;;;;1.55;1.10;;;18.90;44.20;;;;;;4255737;27;20035;-86
2022/04/26 15:55:47;;;;;;;4.13;1.30;;;18.80;44.30;;;;;;4255103;27;20047;-86
2022/04/26 15:57:48;;;;;;;3.83;1.13;;;18.60;44.40;;;;;;4272071;27;20126;-85